sensor_id;sensor_type;location;lat;lon;timestamp;pressure;altitude;pressure_sealevel;temperature;humidity
32452;BME280;45528;52.102;5.242;2023-02-28T00:01:11;102792.0;;;6.39;58.08
32452;BME280;45528;52.102;5.242;2023-02-28T00:02:47;102792.0;;;6.66;57.97
32452;BME280;45528;52.102;5.242;2023-02-28T00:04:24;102786.99999999999;;;6.79;57.58
32452;BME280;45528;52.102;5.242;2023-02-28T00:07:37;102791.00000000001;;;6.66;58.16
32452;BME280;45528;52.102;5.242;2023-02-28T00:09:14;102789.00000000001;;;6.86;58.01
32452;BME280;45528;52.102;5.242;2023-02-28T00:10:50;102788.00000000001;;;6.94;58.02
32452;BME280;45528;52.102;5.242;2023-02-28T00:14:03;102786.99999999999;;;6.93;58.3
32452;BME280;45528;52.102;5.242;2023-02-28T00:15:39;102792.0;;;6.95;58.53
32452;BME280;45528;52.102;5.242;2023-02-28T00:17:15;102792.0;;;6.96;58.46
32452;BME280;45528;52.102;5.242;2023-02-28T00:20:27;102797.0;;;6.91;58.79
32452;BME280;45528;52.102;5.242;2023-02-28T00:22:03;102795.0;;;6.98;58.63
32452;BME280;45528;52.102;5.242;2023-02-28T00:23:39;102790.00000000001;;;6.98;58.71
32452;BME280;45528;52.102;5.242;2023-02-28T00:25:17;102795.0;;;7.07;58.42
32452;BME280;45528;52.102;5.242;2023-02-28T00:28:32;102797.0;;;7.23;58.15
32452;BME280;45528;52.102;5.242;2023-02-28T00:30:11;102800.0;;;7.27;58.08
32452;BME280;45528;52.102;5.242;2023-02-28T00:31:51;102798.0;;;7.27;58.25
32452;BME280;45528;52.102;5.242;2023-02-28T00:35:06;102798.0;;;7.32;58.25
32452;BME280;45528;52.102;5.242;2023-02-28T00:36:43;102800.0;;;7.36;58.25
32452;BME280;45528;52.102;5.242;2023-02-28T00:38:20;102798.0;;;7.29;58.5
32452;BME280;45528;52.102;5.242;2023-02-28T00:39:56;102794.0;;;7.4;58.34
32452;BME280;45528;52.102;5.242;2023-02-28T00:43:08;102797.0;;;7.39;58.51
32452;BME280;45528;52.102;5.242;2023-02-28T00:44:44;102794.0;;;7.48;58.39
32452;BME280;45528;52.102;5.242;2023-02-28T00:46:20;102794.0;;;7.54;58.38
32452;BME280;45528;52.102;5.242;2023-02-28T00:49:33;102797.0;;;7.55;58.46
32452;BME280;45528;52.102;5.242;2023-02-28T00:51:09;102796.0;;;7.63;58.3
32452;BME280;45528;52.102;5.242;2023-02-28T00:52:45;102792.0;;;7.64;58.2
32452;BME280;45528;52.102;5.242;2023-02-28T00:55:59;102791.00000000001;;;7.75;57.99
32452;BME280;45528;52.102;5.242;2023-02-28T00:57:36;102789.00000000001;;;7.87;57.72
32452;BME280;45528;52.102;5.242;2023-02-28T00:59:12;102788.00000000001;;;7.91;57.72
32452;BME280;45528;52.102;5.242;2023-02-28T01:00:49;102788.00000000001;;;7.86;57.81
32452;BME280;45528;52.102;5.242;2023-02-28T01:04:02;102788.00000000001;;;7.85;57.87
32452;BME280;45528;52.102;5.242;2023-02-28T01:05:38;102789.00000000001;;;7.74;58.22
32452;BME280;45528;52.102;5.242;2023-02-28T01:07:14;102783.99999999999;;;7.86;58.03
32452;BME280;45528;52.102;5.242;2023-02-28T01:10:28;102792.0;;;7.84;58.21
32452;BME280;45528;52.102;5.242;2023-02-28T01:12:04;102794.0;;;7.89;58.15
32452;BME280;45528;52.102;5.242;2023-02-28T01:13:40;102795.0;;;7.85;58.38
32452;BME280;45528;52.102;5.242;2023-02-28T01:16:53;102793.0;;;7.85;58.57
32452;BME280;45528;52.102;5.242;2023-02-28T01:18:29;102792.0;;;7.94;58.38
32452;BME280;45528;52.102;5.242;2023-02-28T01:20:06;102792.0;;;8.03;58.21
32452;BME280;45528;52.102;5.242;2023-02-28T01:21:42;102792.0;;;7.94;58.2
32452;BME280;45528;52.102;5.242;2023-02-28T01:24:56;102791.00000000001;;;7.98;58.16
32452;BME280;45528;52.102;5.242;2023-02-28T01:26:32;102796.0;;;8.03;58.1
32452;BME280;45528;52.102;5.242;2023-02-28T01:28:08;102792.0;;;7.99;58.35
32452;BME280;45528;52.102;5.242;2023-02-28T01:31:21;102791.00000000001;;;8.01;58.48
32452;BME280;45528;52.102;5.242;2023-02-28T01:32:59;102788.00000000001;;;8.05;58.6
32452;BME280;45528;52.102;5.242;2023-02-28T01:34:35;102786.99999999999;;;8.19;58.26
32452;BME280;45528;52.102;5.242;2023-02-28T01:37:51;102782.0;;;8.17;58.23
32452;BME280;45528;52.102;5.242;2023-02-28T01:39:27;102780.0;;;8.16;58.2
32452;BME280;45528;52.102;5.242;2023-02-28T01:41:04;102783.0;;;8.16;58.35
32452;BME280;45528;52.102;5.242;2023-02-28T01:42:40;102789.00000000001;;;8.2;58.49
32452;BME280;45528;52.102;5.242;2023-02-28T01:47:02;102780.0;;;8.23;58.44
32452;BME280;45528;52.102;5.242;2023-02-28T01:50:21;102779.0;;;8.28;58.5
32452;BME280;45528;52.102;5.242;2023-02-28T01:51:58;102777.0;;;8.31;58.45
32452;BME280;45528;52.102;5.242;2023-02-28T01:53:38;102774.0;;;8.42;58.19
32452;BME280;45528;52.102;5.242;2023-02-28T01:55:18;102774.0;;;8.45;58.08
32452;BME280;45528;52.102;5.242;2023-02-28T01:58:41;102775.0;;;8.49;58.0
32452;BME280;45528;52.102;5.242;2023-02-28T02:00:20;102772.0;;;8.56;57.86
32452;BME280;45528;52.102;5.242;2023-02-28T02:01:59;102771.0;;;8.6;57.72
32452;BME280;45528;52.102;5.242;2023-02-28T02:03:36;102767.0;;;8.59;57.54
32452;BME280;45528;52.102;5.242;2023-02-28T02:06:53;102767.0;;;8.58;57.56
32452;BME280;45528;52.102;5.242;2023-02-28T02:08:30;102758.99999999999;;;8.53;57.78
32452;BME280;45528;52.102;5.242;2023-02-28T02:10:11;102757.0;;;8.43;58.08
32452;BME280;45528;52.102;5.242;2023-02-28T02:13:48;102750.0;;;8.31;57.92
32452;BME280;45528;52.102;5.242;2023-02-28T02:15:32;102749.0;;;8.53;57.52
32452;BME280;45528;52.102;5.242;2023-02-28T02:17:19;102747.0;;;8.47;57.87
32452;BME280;45528;52.102;5.242;2023-02-28T02:19:11;102744.0;;;8.5;57.73
32452;BME280;45528;52.102;5.242;2023-02-28T02:21:33;102744.0;;;8.49;57.77
32452;BME280;45528;52.102;5.242;2023-02-28T02:27:19;102746.0;;;8.34;58.61
32452;BME280;45528;52.102;5.242;2023-02-28T02:30:07;102746.0;;;8.45;58.27
32452;BME280;45528;52.102;5.242;2023-02-28T02:33:15;102744.0;;;8.42;58.35
32452;BME280;45528;52.102;5.242;2023-02-28T02:35:30;102752.0;;;8.42;58.75
32452;BME280;45528;52.102;5.242;2023-02-28T02:37:14;102758.0;;;8.45;58.67
32452;BME280;45528;52.102;5.242;2023-02-28T02:40:50;102756.0;;;8.5;58.62
32452;BME280;45528;52.102;5.242;2023-02-28T02:42:36;102755.0;;;8.65;58.29
32452;BME280;45528;52.102;5.242;2023-02-28T02:44:20;102755.0;;;8.65;58.43
32452;BME280;45528;52.102;5.242;2023-02-28T02:46:01;102755.0;;;8.71;58.34
32452;BME280;45528;52.102;5.242;2023-02-28T02:47:41;102752.0;;;8.72;58.36
32452;BME280;45528;52.102;5.242;2023-02-28T02:51:01;102753.0;;;8.68;58.44
32452;BME280;45528;52.102;5.242;2023-02-28T02:52:44;102757.0;;;8.71;58.55
32452;BME280;45528;52.102;5.242;2023-02-28T02:54:35;102751.0;;;8.72;58.43
32452;BME280;45528;52.102;5.242;2023-02-28T02:56:13;102749.0;;;8.75;58.34
32452;BME280;45528;52.102;5.242;2023-02-28T02:59:35;102755.0;;;8.77;58.24
32452;BME280;45528;52.102;5.242;2023-02-28T03:01:16;102758.99999999999;;;8.81;58.33
32452;BME280;45528;52.102;5.242;2023-02-28T03:02:55;102757.0;;;8.73;58.55
32452;BME280;45528;52.102;5.242;2023-02-28T03:04:36;102755.0;;;8.72;58.71
32452;BME280;45528;52.102;5.242;2023-02-28T03:07:54;102752.0;;;8.71;58.77
32452;BME280;45528;52.102;5.242;2023-02-28T03:09:33;102759.99999999999;;;8.8;58.54
32452;BME280;45528;52.102;5.242;2023-02-28T03:11:13;102758.99999999999;;;8.84;58.54
32452;BME280;45528;52.102;5.242;2023-02-28T03:12:56;102758.99999999999;;;8.81;58.62
32452;BME280;45528;52.102;5.242;2023-02-28T03:16:35;102763.00000000001;;;8.81;58.68
32452;BME280;45528;52.102;5.242;2023-02-28T03:18:21;102759.99999999999;;;8.76;58.7
32452;BME280;45528;52.102;5.242;2023-02-28T03:20:07;102752.0;;;8.82;58.82
32452;BME280;45528;52.102;5.242;2023-02-28T03:21:59;102755.0;;;8.92;58.56
32452;BME280;45528;52.102;5.242;2023-02-28T03:23:45;102755.0;;;8.99;58.31
32452;BME280;45528;52.102;5.242;2023-02-28T03:25:31;102757.0;;;8.92;58.49
32452;BME280;45528;52.102;5.242;2023-02-28T03:29:02;102757.0;;;8.88;58.75
32452;BME280;45528;52.102;5.242;2023-02-28T03:30:47;102755.0;;;8.83;58.83
32452;BME280;45528;52.102;5.242;2023-02-28T03:32:28;102756.0;;;8.81;58.99
32452;BME280;45528;52.102;5.242;2023-02-28T03:34:12;102755.0;;;8.76;59.17
32452;BME280;45528;52.102;5.242;2023-02-28T03:35:56;102756.0;;;8.78;59.22
32452;BME280;45528;52.102;5.242;2023-02-28T03:39:19;102758.0;;;8.84;59.17
32452;BME280;45528;52.102;5.242;2023-02-28T03:41:02;102759.99999999999;;;8.89;59.04
32452;BME280;45528;52.102;5.242;2023-02-28T03:42:43;102758.0;;;8.9;58.95
32452;BME280;45528;52.102;5.242;2023-02-28T03:44:24;102757.0;;;8.9;58.92
32452;BME280;45528;52.102;5.242;2023-02-28T03:46:09;102754.0;;;8.91;58.86
32452;BME280;45528;52.102;5.242;2023-02-28T03:49:31;102759.99999999999;;;8.86;58.91
32452;BME280;45528;52.102;5.242;2023-02-28T03:51:14;102764.00000000001;;;8.89;59.01
32452;BME280;45528;52.102;5.242;2023-02-28T03:52:55;102765.00000000001;;;8.88;59.07
32452;BME280;45528;52.102;5.242;2023-02-28T03:54:41;102764.00000000001;;;8.9;59.03
32452;BME280;45528;52.102;5.242;2023-02-28T03:58:09;102766.00000000001;;;8.9;58.99
32452;BME280;45528;52.102;5.242;2023-02-28T03:59:55;102763.00000000001;;;8.85;59.22
32452;BME280;45528;52.102;5.242;2023-02-28T04:01:38;102767.0;;;8.91;59.25
32452;BME280;45528;52.102;5.242;2023-02-28T04:03:16;102769.0;;;8.9;59.45
32452;BME280;45528;52.102;5.242;2023-02-28T04:06:31;102772.0;;;8.98;59.31
32452;BME280;45528;52.102;5.242;2023-02-28T04:08:08;102772.0;;;8.96;59.24
32452;BME280;45528;52.102;5.242;2023-02-28T04:09:44;102772.0;;;8.92;59.41
32452;BME280;45528;52.102;5.242;2023-02-28T04:11:23;102770.0;;;8.89;59.53
32452;BME280;45528;52.102;5.242;2023-02-28T04:14:38;102767.0;;;8.78;59.96
32452;BME280;45528;52.102;5.242;2023-02-28T04:16:15;102775.0;;;8.91;59.65
32452;BME280;45528;52.102;5.242;2023-02-28T04:17:51;102779.0;;;8.96;59.58
32452;BME280;45528;52.102;5.242;2023-02-28T04:21:04;102773.0;;;8.93;59.35
32452;BME280;45528;52.102;5.242;2023-02-28T04:22:41;102777.0;;;9.01;59.19
32452;BME280;45528;52.102;5.242;2023-02-28T04:24:19;102779.0;;;9.03;58.92
32452;BME280;45528;52.102;5.242;2023-02-28T04:25:56;102771.0;;;8.76;59.22
32452;BME280;45528;52.102;5.242;2023-02-28T04:29:11;102774.0;;;8.9;58.08
32452;BME280;45528;52.102;5.242;2023-02-28T04:30:54;102775.0;;;8.84;57.68
32452;BME280;45528;52.102;5.242;2023-02-28T04:32:31;102780.0;;;8.89;57.26
32452;BME280;45528;52.102;5.242;2023-02-28T04:35:43;102781.0;;;8.84;57.14
32452;BME280;45528;52.102;5.242;2023-02-28T04:37:19;102782.0;;;8.93;56.38
32452;BME280;45528;52.102;5.242;2023-02-28T04:38:56;102783.99999999999;;;8.66;56.69
32452;BME280;45528;52.102;5.242;2023-02-28T04:40:33;102788.00000000001;;;8.72;56.36
32452;BME280;45528;52.102;5.242;2023-02-28T04:43:46;102791.00000000001;;;8.39;54.84
32452;BME280;45528;52.102;5.242;2023-02-28T04:45:22;102793.0;;;8.65;53.81
32452;BME280;45528;52.102;5.242;2023-02-28T04:46:58;102791.00000000001;;;8.49;54.19
32452;BME280;45528;52.102;5.242;2023-02-28T04:50:14;102791.00000000001;;;8.56;53.82
32452;BME280;45528;52.102;5.242;2023-02-28T04:51:50;102789.00000000001;;;8.61;54.31
32452;BME280;45528;52.102;5.242;2023-02-28T04:53:27;102786.99999999999;;;8.63;53.65
32452;BME280;45528;52.102;5.242;2023-02-28T04:56:41;102782.0;;;8.51;53.86
32452;BME280;45528;52.102;5.242;2023-02-28T04:58:18;102790.00000000001;;;8.61;53.83
32452;BME280;45528;52.102;5.242;2023-02-28T04:59:54;102790.00000000001;;;8.69;53.68
32452;BME280;45528;52.102;5.242;2023-02-28T05:01:32;102790.00000000001;;;8.61;53.52
32452;BME280;45528;52.102;5.242;2023-02-28T05:04:45;102789.00000000001;;;8.57;53.03
32452;BME280;45528;52.102;5.242;2023-02-28T05:06:22;102786.99999999999;;;8.65;52.46
32452;BME280;45528;52.102;5.242;2023-02-28T05:07:59;102789.00000000001;;;8.6;52.34
32452;BME280;45528;52.102;5.242;2023-02-28T05:11:16;102786.99999999999;;;8.56;52.24
32452;BME280;45528;52.102;5.242;2023-02-28T05:12:52;102780.0;;;8.47;52.52
32452;BME280;45528;52.102;5.242;2023-02-28T05:14:29;102781.0;;;8.6;52.32
32452;BME280;45528;52.102;5.242;2023-02-28T05:16:05;102776.0;;;8.48;52.44
32452;BME280;45528;52.102;5.242;2023-02-28T05:19:19;102779.0;;;8.56;52.58
32452;BME280;45528;52.102;5.242;2023-02-28T05:20:55;102782.0;;;8.49;53.08
32452;BME280;45528;52.102;5.242;2023-02-28T05:22:31;102781.0;;;8.48;52.89
32452;BME280;45528;52.102;5.242;2023-02-28T05:25:48;102781.0;;;8.41;52.9
32452;BME280;45528;52.102;5.242;2023-02-28T05:27:24;102790.00000000001;;;8.02;53.43
32452;BME280;45528;52.102;5.242;2023-02-28T05:30:36;102794.0;;;8.07;53.91
32452;BME280;45528;52.102;5.242;2023-02-28T05:32:12;102801.0;;;8.02;54.55
32452;BME280;45528;52.102;5.242;2023-02-28T05:33:49;102798.0;;;7.99;55.06
32452;BME280;45528;52.102;5.242;2023-02-28T05:35:26;102803.0;;;7.99;55.54
32452;BME280;45528;52.102;5.242;2023-02-28T05:37:02;102801.0;;;7.99;56.27
32452;BME280;45528;52.102;5.242;2023-02-28T05:40:15;102798.0;;;7.82;57.62
32452;BME280;45528;52.102;5.242;2023-02-28T05:41:52;102797.0;;;7.8;58.2
32452;BME280;45528;52.102;5.242;2023-02-28T05:43:28;102799.0;;;7.37;58.57
32452;BME280;45528;52.102;5.242;2023-02-28T05:46:41;102793.0;;;7.55;59.49
32452;BME280;45528;52.102;5.242;2023-02-28T05:48:17;102795.0;;;7.5;59.71
32452;BME280;45528;52.102;5.242;2023-02-28T05:49:53;102800.0;;;7.47;59.98
32452;BME280;45528;52.102;5.242;2023-02-28T05:53:06;102797.0;;;7.43;60.23
32452;BME280;45528;52.102;5.242;2023-02-28T05:54:42;102797.0;;;7.43;60.67
32452;BME280;45528;52.102;5.242;2023-02-28T05:56:18;102794.0;;;7.35;60.92
32452;BME280;45528;52.102;5.242;2023-02-28T05:57:55;102794.0;;;7.42;60.74
32452;BME280;45528;52.102;5.242;2023-02-28T06:01:32;102797.0;;;7.42;60.95
32452;BME280;45528;52.102;5.242;2023-02-28T06:03:09;102793.0;;;7.41;61.05
32452;BME280;45528;52.102;5.242;2023-02-28T06:04:45;102795.0;;;7.39;61.34
32452;BME280;45528;52.102;5.242;2023-02-28T06:06:22;102796.0;;;7.18;61.88
32452;BME280;45528;52.102;5.242;2023-02-28T06:09:34;102797.0;;;7.26;62.12
32452;BME280;45528;52.102;5.242;2023-02-28T06:11:12;102799.0;;;7.3;62.02
32452;BME280;45528;52.102;5.242;2023-02-28T06:12:48;102802.0;;;7.27;62.09
32452;BME280;45528;52.102;5.242;2023-02-28T06:16:01;102800.0;;;7.28;62.22
32452;BME280;45528;52.102;5.242;2023-02-28T06:17:37;102798.0;;;7.15;62.7
32452;BME280;45528;52.102;5.242;2023-02-28T06:19:13;102796.0;;;7.21;62.68
32452;BME280;45528;52.102;5.242;2023-02-28T06:22:28;102794.0;;;7.22;62.76
32452;BME280;45528;52.102;5.242;2023-02-28T06:24:05;102793.0;;;7.23;62.82
32452;BME280;45528;52.102;5.242;2023-02-28T06:25:44;102794.0;;;7.23;62.7
32452;BME280;45528;52.102;5.242;2023-02-28T06:27:21;102795.0;;;7.41;62.45
32452;BME280;45528;52.102;5.242;2023-02-28T06:30:33;102793.0;;;7.3;62.72
32452;BME280;45528;52.102;5.242;2023-02-28T06:32:09;102790.00000000001;;;7.35;62.84
32452;BME280;45528;52.102;5.242;2023-02-28T06:33:46;102783.0;;;7.36;62.89
32452;BME280;45528;52.102;5.242;2023-02-28T06:36:59;102788.00000000001;;;7.38;62.86
32452;BME280;45528;52.102;5.242;2023-02-28T06:38:36;102792.0;;;7.4;63.01
32452;BME280;45528;52.102;5.242;2023-02-28T06:40:14;102794.0;;;7.48;62.95
32452;BME280;45528;52.102;5.242;2023-02-28T06:41:51;102794.0;;;7.55;62.73
32452;BME280;45528;52.102;5.242;2023-02-28T06:45:06;102792.0;;;7.57;62.73
32452;BME280;45528;52.102;5.242;2023-02-28T06:46:44;102793.0;;;7.65;62.41
32452;BME280;45528;52.102;5.242;2023-02-28T06:48:20;102798.0;;;7.79;62.16
32452;BME280;45528;52.102;5.242;2023-02-28T06:51:33;102801.0;;;7.84;62.08
32452;BME280;45528;52.102;5.242;2023-02-28T06:53:09;102804.0;;;7.85;62.04
32452;BME280;45528;52.102;5.242;2023-02-28T06:54:45;102799.0;;;7.16;64.25
32452;BME280;45528;52.102;5.242;2023-02-28T06:57:58;102800.0;;;7.68;62.63
32452;BME280;45528;52.102;5.242;2023-02-28T06:59:35;102803.0;;;7.68;62.68
32452;BME280;45528;52.102;5.242;2023-02-28T07:01:11;102800.0;;;7.78;62.52
32452;BME280;45528;52.102;5.242;2023-02-28T07:02:49;102794.0;;;7.89;62.29
32452;BME280;45528;52.102;5.242;2023-02-28T07:06:01;102795.0;;;7.92;62.23
32452;BME280;45528;52.102;5.242;2023-02-28T07:07:38;102799.0;;;7.86;62.46
32452;BME280;45528;52.102;5.242;2023-02-28T07:09:15;102798.0;;;7.9;62.34
32452;BME280;45528;52.102;5.242;2023-02-28T07:12:29;102800.0;;;7.86;62.56
32452;BME280;45528;52.102;5.242;2023-02-28T07:14:05;102803.0;;;7.92;62.17
32452;BME280;45528;52.102;5.242;2023-02-28T07:15:41;102805.0;;;7.78;62.88
32452;BME280;45528;52.102;5.242;2023-02-28T07:18:53;102806.0;;;7.89;62.32
32452;BME280;45528;52.102;5.242;2023-02-28T07:20:30;102805.0;;;7.91;62.34
32452;BME280;45528;52.102;5.242;2023-02-28T07:22:07;102808.0;;;7.92;62.34
32452;BME280;45528;52.102;5.242;2023-02-28T07:23:44;102808.99999999999;;;7.95;62.41
32452;BME280;45528;52.102;5.242;2023-02-28T07:26:56;102800.0;;;7.79;62.95
32452;BME280;45528;52.102;5.242;2023-02-28T07:28:33;102801.0;;;7.86;62.93
32452;BME280;45528;52.102;5.242;2023-02-28T07:30:10;102805.0;;;7.9;62.95
32452;BME280;45528;52.102;5.242;2023-02-28T07:33:22;102808.99999999999;;;7.98;62.72
32452;BME280;45528;52.102;5.242;2023-02-28T07:34:59;102811.99999999999;;;8.05;62.5
32452;BME280;45528;52.102;5.242;2023-02-28T07:36:35;102809.99999999999;;;8.11;62.27
32452;BME280;45528;52.102;5.242;2023-02-28T07:39:47;102808.0;;;8.15;62.25
32452;BME280;45528;52.102;5.242;2023-02-28T07:41:23;102806.0;;;8.09;62.45
32452;BME280;45528;52.102;5.242;2023-02-28T07:42:59;102801.0;;;8.23;61.82
32452;BME280;45528;52.102;5.242;2023-02-28T07:44:36;102808.99999999999;;;8.23;61.85
32452;BME280;45528;52.102;5.242;2023-02-28T07:47:52;102811.99999999999;;;8.15;62.23
32452;BME280;45528;52.102;5.242;2023-02-28T07:49:29;102814.00000000001;;;8.31;61.92
32452;BME280;45528;52.102;5.242;2023-02-28T07:51:05;102817.0;;;8.2;61.84
32452;BME280;45528;52.102;5.242;2023-02-28T07:54:18;102820.0;;;8.32;61.61
32452;BME280;45528;52.102;5.242;2023-02-28T07:55:55;102820.0;;;8.24;61.89
32452;BME280;45528;52.102;5.242;2023-02-28T07:57:31;102818.0;;;8.31;61.62
32452;BME280;45528;52.102;5.242;2023-02-28T08:00:44;102817.0;;;8.28;61.33
32452;BME280;45528;52.102;5.242;2023-02-28T08:02:20;102818.0;;;8.26;61.8
32452;BME280;45528;52.102;5.242;2023-02-28T08:03:56;102828.0;;;8.31;61.72
32452;BME280;45528;52.102;5.242;2023-02-28T08:05:32;102833.0;;;8.26;62.0
32452;BME280;45528;52.102;5.242;2023-02-28T08:08:45;102818.0;;;8.25;62.39
32452;BME280;45528;52.102;5.242;2023-02-28T08:10:20;102817.0;;;8.28;62.33
32452;BME280;45528;52.102;5.242;2023-02-28T08:11:57;102822.0;;;8.38;62.02
32452;BME280;45528;52.102;5.242;2023-02-28T08:15:10;102829.0;;;8.45;61.6
32452;BME280;45528;52.102;5.242;2023-02-28T08:16:46;102834.99999999999;;;8.45;61.66
32452;BME280;45528;52.102;5.242;2023-02-28T08:18:23;102836.99999999999;;;8.5;61.71
32452;BME280;45528;52.102;5.242;2023-02-28T08:21:36;102836.99999999999;;;8.47;61.92
32452;BME280;45528;52.102;5.242;2023-02-28T08:23:12;102833.0;;;8.44;62.21
32452;BME280;45528;52.102;5.242;2023-02-28T08:24:49;102836.99999999999;;;8.48;62.36
32452;BME280;45528;52.102;5.242;2023-02-28T08:28:02;102843.0;;;8.56;62.1
32452;BME280;45528;52.102;5.242;2023-02-28T08:29:38;102845.0;;;8.64;61.56
32452;BME280;45528;52.102;5.242;2023-02-28T08:31:16;102849.0;;;8.48;61.76
32452;BME280;45528;52.102;5.242;2023-02-28T08:32:53;102843.0;;;8.36;62.0
32452;BME280;45528;52.102;5.242;2023-02-28T08:36:06;102832.0;;;8.4;61.62
32452;BME280;45528;52.102;5.242;2023-02-28T08:37:43;102833.99999999999;;;8.3;61.98
32452;BME280;45528;52.102;5.242;2023-02-28T08:39:19;102833.0;;;8.52;61.51
32452;BME280;45528;52.102;5.242;2023-02-28T08:42:35;102838.00000000001;;;8.72;61.26
32452;BME280;45528;52.102;5.242;2023-02-28T08:44:12;102842.0;;;8.61;61.52
32452;BME280;45528;52.102;5.242;2023-02-28T08:45:51;102848.0;;;8.49;61.0
32452;BME280;45528;52.102;5.242;2023-02-28T08:47:27;102842.0;;;8.57;60.69
32452;BME280;45528;52.102;5.242;2023-02-28T08:50:39;102840.00000000001;;;8.64;60.41
32452;BME280;45528;52.102;5.242;2023-02-28T08:52:15;102841.00000000001;;;8.77;60.01
32452;BME280;45528;52.102;5.242;2023-02-28T08:53:53;102841.00000000001;;;8.66;59.51
32452;BME280;45528;52.102;5.242;2023-02-28T08:57:06;102841.00000000001;;;8.78;59.0
32452;BME280;45528;52.102;5.242;2023-02-28T08:58:43;102838.00000000001;;;8.84;58.44
32452;BME280;45528;52.102;5.242;2023-02-28T09:00:21;102838.00000000001;;;8.81;58.91
32452;BME280;45528;52.102;5.242;2023-02-28T09:03:34;102830.0;;;8.83;57.72
32452;BME280;45528;52.102;5.242;2023-02-28T09:05:10;102829.0;;;8.98;57.12
32452;BME280;45528;52.102;5.242;2023-02-28T09:06:46;102832.0;;;8.94;57.45
32452;BME280;45528;52.102;5.242;2023-02-28T09:08:23;102842.0;;;9.02;57.55
32452;BME280;45528;52.102;5.242;2023-02-28T09:11:36;102842.0;;;8.83;56.11
32452;BME280;45528;52.102;5.242;2023-02-28T09:13:12;102846.0;;;8.99;56.6
32452;BME280;45528;52.102;5.242;2023-02-28T09:14:49;102848.0;;;8.86;56.61
32452;BME280;45528;52.102;5.242;2023-02-28T09:18:01;102850.0;;;8.97;56.45
32452;BME280;45528;52.102;5.242;2023-02-28T09:19:37;102842.0;;;8.89;55.53
32452;BME280;45528;52.102;5.242;2023-02-28T09:21:14;102845.0;;;8.97;55.82
32452;BME280;45528;52.102;5.242;2023-02-28T09:24:28;102838.00000000001;;;8.91;55.18
32452;BME280;45528;52.102;5.242;2023-02-28T09:26:05;102842.0;;;8.9;54.5
32452;BME280;45528;52.102;5.242;2023-02-28T09:27:42;102846.0;;;9.06;54.63
32452;BME280;45528;52.102;5.242;2023-02-28T09:32:31;102845.0;;;9.42;52.62
32452;BME280;45528;52.102;5.242;2023-02-28T09:35:44;102845.0;;;9.58;51.65
32452;BME280;45528;52.102;5.242;2023-02-28T09:37:19;102845.0;;;9.84;51.42
32452;BME280;45528;52.102;5.242;2023-02-28T09:38:56;102846.0;;;9.99;51.0
32452;BME280;45528;52.102;5.242;2023-02-28T09:42:20;102846.0;;;10.05;49.91
32452;BME280;45528;52.102;5.242;2023-02-28T09:44:07;102844.0;;;10.09;47.4
32452;BME280;45528;52.102;5.242;2023-02-28T09:45:52;102847.0;;;9.88;48.13
32452;BME280;45528;52.102;5.242;2023-02-28T09:47:33;102854.0;;;10.14;49.03
32452;BME280;45528;52.102;5.242;2023-02-28T09:49:14;102848.0;;;10.42;47.6
32452;BME280;45528;52.102;5.242;2023-02-28T09:52:36;102849.0;;;10.54;47.57
32452;BME280;45528;52.102;5.242;2023-02-28T09:54:16;102848.0;;;10.58;47.05
32452;BME280;45528;52.102;5.242;2023-02-28T09:55:55;102844.0;;;10.65;45.74
32452;BME280;45528;52.102;5.242;2023-02-28T09:57:37;102841.00000000001;;;10.85;46.3
32452;BME280;45528;52.102;5.242;2023-02-28T10:01:24;102846.0;;;11.03;43.82
32452;BME280;45528;52.102;5.242;2023-02-28T10:03:22;102850.0;;;10.81;45.43
32452;BME280;45528;52.102;5.242;2023-02-28T10:05:05;102857.0;;;10.35;42.56
32452;BME280;45528;52.102;5.242;2023-02-28T10:06:46;102849.0;;;10.48;40.68
32452;BME280;45528;52.102;5.242;2023-02-28T10:08:26;102851.0;;;10.42;39.18
32452;BME280;45528;52.102;5.242;2023-02-28T10:10:18;102847.0;;;10.79;40.18
32452;BME280;45528;52.102;5.242;2023-02-28T10:13:49;102843.0;;;10.85;38.74
32452;BME280;45528;52.102;5.242;2023-02-28T10:15:29;102843.0;;;10.58;37.79
32452;BME280;45528;52.102;5.242;2023-02-28T10:17:11;102843.0;;;10.59;37.96
32452;BME280;45528;52.102;5.242;2023-02-28T10:18:54;102842.0;;;10.79;37.17
32452;BME280;45528;52.102;5.242;2023-02-28T10:20:37;102840.00000000001;;;10.81;38.19
32452;BME280;45528;52.102;5.242;2023-02-28T10:24:03;102834.99999999999;;;11.09;36.65
32452;BME280;45528;52.102;5.242;2023-02-28T10:25:55;102834.99999999999;;;11.13;35.96
32452;BME280;45528;52.102;5.242;2023-02-28T10:27:34;102833.99999999999;;;11.33;37.74
32452;BME280;45528;52.102;5.242;2023-02-28T10:29:11;102828.0;;;11.26;36.11
32452;BME280;45528;52.102;5.242;2023-02-28T10:32:27;102822.0;;;11.13;36.42
32452;BME280;45528;52.102;5.242;2023-02-28T10:34:07;102822.0;;;11.26;35.42
32452;BME280;45528;52.102;5.242;2023-02-28T10:35:47;102827.0;;;11.17;36.03
32452;BME280;45528;52.102;5.242;2023-02-28T10:37:25;102822.0;;;11.51;35.19
32452;BME280;45528;52.102;5.242;2023-02-28T10:41:16;102823.0;;;11.9;35.18
32452;BME280;45528;52.102;5.242;2023-02-28T10:42:56;102820.0;;;11.78;32.42
32452;BME280;45528;52.102;5.242;2023-02-28T10:44:34;102828.0;;;11.87;35.28
32452;BME280;45528;52.102;5.242;2023-02-28T10:46:14;102826.0;;;11.82;34.46
32452;BME280;45528;52.102;5.242;2023-02-28T10:47:53;102821.0;;;11.4;35.06
32452;BME280;45528;52.102;5.242;2023-02-28T10:51:07;102822.0;;;11.56;34.31
32452;BME280;45528;52.102;5.242;2023-02-28T10:52:46;102823.0;;;11.99;33.8
32452;BME280;45528;52.102;5.242;2023-02-28T10:54:26;102822.0;;;11.86;33.69
32452;BME280;45528;52.102;5.242;2023-02-28T10:56:09;102815.00000000001;;;12.1;33.86
32452;BME280;45528;52.102;5.242;2023-02-28T10:59:29;102817.0;;;12.45;33.9
32452;BME280;45528;52.102;5.242;2023-02-28T11:01:13;102811.99999999999;;;11.96;32.76
32452;BME280;45528;52.102;5.242;2023-02-28T11:02:50;102805.0;;;11.92;34.28